createdAt,value
2018-05-17T00:01:08.720Z,12.64
2018-05-17T00:03:36.126Z,12.69
2018-05-17T00:06:04.464Z,12.79
2018-05-17T00:08:31.858Z,12.84
2018-05-17T00:10:59.266Z,12.77
2018-05-17T00:13:26.796Z,12.97
2018-05-17T00:15:54.203Z,12.93
2018-05-17T00:18:21.596Z,12.94
2018-05-17T00:20:49.000Z,12.94
2018-05-17T00:23:17.318Z,12.87
2018-05-17T00:25:44.727Z,12.94
2018-05-17T00:28:12.132Z,12.94
2018-05-17T00:30:39.901Z,12.90
2018-05-17T00:33:07.297Z,13.05
2018-05-17T00:35:35.662Z,13.02
2018-05-17T00:38:03.129Z,12.97
2018-05-17T00:40:30.543Z,12.95
2018-05-17T00:42:57.935Z,12.97
2018-05-17T00:45:25.345Z,13.15
2018-05-17T00:47:52.744Z,13.00
2018-05-17T00:50:20.136Z,13.10
2018-05-17T00:52:59.238Z,13.02
2018-05-17T00:55:26.630Z,13.00
2018-05-17T00:57:54.105Z,12.96
2018-05-17T01:00:21.484Z,12.95
2018-05-17T01:02:48.880Z,13.08
2018-05-17T01:05:16.292Z,12.99
2018-05-17T01:07:43.686Z,12.95
2018-05-17T01:10:11.108Z,13.09
2018-05-17T01:12:39.133Z,13.07
2018-05-17T01:15:07.376Z,12.99
2018-05-17T01:17:35.568Z,12.95
2018-05-17T01:20:02.985Z,12.91
2018-05-17T01:22:30.414Z,12.84
2018-05-17T01:24:57.823Z,12.86
2018-05-17T01:27:25.257Z,12.92
2018-05-17T01:29:52.644Z,12.94
2018-05-17T01:32:20.048Z,12.92
2018-05-17T01:34:47.444Z,13.09
2018-05-17T01:37:26.608Z,12.90
2018-05-17T01:39:54.144Z,12.86
2018-05-17T01:42:21.551Z,12.92
2018-05-17T01:44:48.943Z,12.96
2018-05-17T01:47:16.355Z,13.07
2018-05-17T01:49:43.750Z,13.02
2018-05-17T01:52:11.156Z,13.12
2018-05-17T01:54:39.273Z,13.10
2018-05-17T01:57:06.659Z,13.13
2018-05-17T01:59:34.071Z,13.22
2018-05-17T02:02:01.484Z,13.33
2018-05-17T02:04:28.893Z,13.29
2018-05-17T02:06:56.287Z,13.31
2018-05-17T02:09:23.693Z,13.30
2018-05-17T02:11:51.092Z,13.40
2018-05-17T02:14:18.749Z,13.27
2018-05-17T02:16:46.153Z,13.20
2018-05-17T02:19:13.591Z,13.24
2018-05-17T02:21:41.240Z,13.26
2018-05-17T02:24:08.648Z,13.22
2018-05-17T02:26:36.040Z,13.20
2018-05-17T02:29:03.465Z,13.25
2018-05-17T02:31:30.854Z,13.30
2018-05-17T02:33:58.264Z,13.21
2018-05-17T02:36:25.672Z,13.26
2018-05-17T02:38:53.091Z,13.31
2018-05-17T02:41:20.486Z,13.38
2018-05-17T02:43:47.903Z,13.35
2018-05-17T02:46:15.292Z,13.36
2018-05-17T02:48:42.768Z,13.37
2018-05-17T02:51:10.164Z,13.43
2018-05-17T02:53:37.564Z,13.43
2018-05-17T02:56:04.969Z,13.46
2018-05-17T02:58:32.517Z,13.50
2018-05-17T03:00:59.921Z,13.45
2018-05-17T03:03:27.319Z,13.44
2018-05-17T03:05:54.897Z,13.47
2018-05-17T03:08:22.401Z,13.41
2018-05-17T03:10:49.807Z,13.30
2018-05-17T03:13:17.214Z,13.36
2018-05-17T03:15:44.633Z,13.39
2018-05-17T03:18:12.028Z,13.28
2018-05-17T03:20:39.449Z,13.32
2018-05-17T03:23:06.842Z,13.49
2018-05-17T03:25:34.302Z,13.45
2018-05-17T03:28:01.710Z,13.42
2018-05-17T03:30:29.117Z,13.45
2018-05-17T03:32:56.543Z,13.44
2018-05-17T03:35:24.082Z,13.39
2018-05-17T03:37:51.487Z,13.36
2018-05-17T03:40:18.896Z,13.26
2018-05-17T03:42:46.317Z,13.03
2018-05-17T03:45:14.408Z,13.10
2018-05-17T03:47:41.802Z,13.09
2018-05-17T03:50:09.220Z,13.08
2018-05-17T03:52:36.624Z,13.19
2018-05-17T03:55:04.076Z,13.27
2018-05-17T03:57:31.476Z,13.05
2018-05-17T03:59:59.138Z,13.06
2018-05-17T04:02:38.271Z,13.21
2018-05-17T04:05:17.499Z,13.20
2018-05-17T04:07:45.479Z,13.13
2018-05-17T04:10:12.916Z,13.11
2018-05-17T04:12:43.511Z,13.08
2018-05-17T04:15:11.005Z,13.07
2018-05-17T04:17:38.464Z,13.12
2018-05-17T04:20:05.872Z,13.04
2018-05-17T04:22:33.327Z,13.02
2018-05-17T04:25:00.795Z,13.14
2018-05-17T04:27:28.192Z,13.22
2018-05-17T04:29:55.600Z,13.12
2018-05-17T04:32:23.064Z,13.26
2018-05-17T04:34:50.473Z,13.18
2018-05-17T04:37:17.872Z,13.22
2018-05-17T04:39:45.277Z,13.25
2018-05-17T04:42:12.755Z,13.34
2018-05-17T04:44:40.150Z,13.42
2018-05-17T04:47:07.624Z,13.45
2018-05-17T04:49:35.021Z,13.53
2018-05-17T04:52:02.410Z,13.53
2018-05-17T04:54:29.799Z,13.45
2018-05-17T04:56:57.202Z,13.51
2018-05-17T04:59:25.728Z,13.49
2018-05-17T05:01:53.118Z,13.36
2018-05-17T05:04:20.517Z,13.36
2018-05-17T05:06:47.950Z,13.50
2018-05-17T05:09:15.340Z,13.36
2018-05-17T05:11:42.741Z,13.38
2018-05-17T05:14:10.138Z,13.43
2018-05-17T05:16:37.695Z,13.44
2018-05-17T05:19:05.125Z,13.33
2018-05-17T05:21:32.527Z,13.23
2018-05-17T05:23:59.992Z,13.30
2018-05-17T05:26:27.646Z,13.36
2018-05-17T05:28:55.046Z,13.32
2018-05-17T05:31:22.433Z,13.36
2018-05-17T05:33:49.840Z,13.37
2018-05-17T05:36:17.342Z,13.41
2018-05-17T05:38:44.737Z,13.40
2018-05-17T05:41:12.136Z,13.30
2018-05-17T05:43:39.540Z,13.40
2018-05-17T05:46:06.947Z,13.52
2018-05-17T05:48:34.331Z,13.56
2018-05-17T05:51:01.770Z,13.70
2018-05-17T05:53:29.245Z,13.75
2018-05-17T05:55:56.643Z,13.67
2018-05-17T05:58:24.059Z,13.63
2018-05-17T06:00:52.054Z,13.72
2018-05-17T06:03:19.639Z,13.83
2018-05-17T06:05:47.038Z,13.80
2018-05-17T06:08:14.447Z,13.67
2018-05-17T06:10:41.844Z,13.74
2018-05-17T06:13:09.245Z,13.83
2018-05-17T06:15:36.632Z,13.86
2018-05-17T06:18:04.036Z,13.74
2018-05-17T06:20:32.025Z,13.58
2018-05-17T06:22:59.439Z,13.54
2018-05-17T06:25:26.835Z,13.51
2018-05-17T06:27:54.276Z,13.61
2018-05-17T06:30:21.857Z,13.42
2018-05-17T06:32:49.809Z,13.35
2018-05-17T06:35:17.200Z,13.58
2018-05-17T06:37:44.619Z,13.74
2018-05-17T06:40:12.031Z,13.71
2018-05-17T06:42:39.427Z,13.93
2018-05-17T06:45:06.828Z,14.11
2018-05-17T06:47:34.239Z,14.27
2018-05-17T06:50:01.636Z,14.67
2018-05-17T06:52:29.045Z,14.66
2018-05-17T06:54:56.517Z,14.21
2018-05-17T06:57:24.203Z,14.07
2018-05-17T06:59:51.557Z,13.98
2018-05-17T07:02:18.962Z,13.77
2018-05-17T07:04:46.482Z,13.60
2018-05-17T07:07:13.895Z,13.46
2018-05-17T07:09:41.296Z,13.47
2018-05-17T07:12:08.701Z,13.58
2018-05-17T07:14:36.098Z,13.51
2018-05-17T07:17:03.488Z,13.20
2018-05-17T07:19:30.886Z,13.19
2018-05-17T07:21:58.296Z,13.09
2018-05-17T07:24:25.765Z,13.16
2018-05-17T07:26:53.159Z,13.06
2018-05-17T07:29:21.233Z,12.93
2018-05-17T07:31:48.676Z,12.86
2018-05-17T07:34:16.089Z,12.85
2018-05-17T07:36:43.488Z,12.81
2018-05-17T07:39:11.080Z,12.80
2018-05-17T07:41:38.490Z,12.78
2018-05-17T07:44:05.901Z,12.85
2018-05-17T07:46:33.294Z,12.76
2018-05-17T07:49:01.288Z,12.73
2018-05-17T07:51:28.683Z,12.57
2018-05-17T07:53:56.093Z,12.52
2018-05-17T07:56:23.479Z,12.71
2018-05-17T07:58:50.944Z,12.73
2018-05-17T08:01:18.628Z,12.85
2018-05-17T08:03:46.033Z,12.82
2018-05-17T08:06:13.688Z,12.89
2018-05-17T08:08:41.106Z,12.84
2018-05-17T08:11:08.504Z,12.92
2018-05-17T08:13:35.919Z,12.94
2018-05-17T08:16:03.319Z,13.16
2018-05-17T08:18:30.752Z,13.30
2018-05-17T08:20:58.160Z,13.44
2018-05-17T08:23:25.559Z,13.43
2018-05-17T08:25:53.127Z,13.42
2018-05-17T08:28:20.531Z,13.47
2018-05-17T08:30:47.932Z,13.37
2018-05-17T08:33:15.393Z,13.30
2018-05-17T08:35:42.787Z,13.30
2018-05-17T08:38:10.714Z,13.37
2018-05-17T08:40:38.184Z,13.36
2018-05-17T08:43:05.660Z,13.38
2018-05-17T08:45:33.131Z,13.31
2018-05-17T08:48:00.469Z,13.48
2018-05-17T08:50:27.971Z,13.55
2018-05-17T08:52:55.371Z,13.67
2018-05-17T08:55:23.652Z,13.71
2018-05-17T08:57:51.046Z,13.74
2018-05-17T09:00:18.450Z,14.05
2018-05-17T09:02:45.998Z,14.32
2018-05-17T09:05:13.392Z,14.78
2018-05-17T09:07:40.777Z,14.42
2018-05-17T09:10:08.209Z,14.32
2018-05-17T09:12:35.600Z,14.32
2018-05-17T09:15:03.054Z,14.65
2018-05-17T09:17:30.442Z,14.77
2018-05-17T09:19:57.855Z,14.74
2018-05-17T09:22:25.248Z,14.83
2018-05-17T09:24:52.735Z,14.62
2018-05-17T09:27:20.121Z,14.47
2018-05-17T09:29:47.521Z,14.06
2018-05-17T09:32:14.954Z,14.06
2018-05-17T09:34:42.433Z,14.01
2018-05-17T09:37:09.834Z,13.98
2018-05-17T09:39:37.215Z,14.01
2018-05-17T09:42:04.660Z,14.20
2018-05-17T09:44:32.214Z,14.28
2018-05-17T09:46:59.672Z,14.38
2018-05-17T09:49:27.076Z,14.22
2018-05-17T09:51:55.051Z,14.27
2018-05-17T09:54:22.452Z,14.15
2018-05-17T09:56:49.856Z,14.50
2018-05-17T09:59:17.317Z,14.43
2018-05-17T10:01:44.741Z,14.68
2018-05-17T10:04:12.138Z,14.64
2018-05-17T10:06:39.541Z,14.54
2018-05-17T10:09:07.263Z,14.69
2018-05-17T10:11:34.668Z,14.64
2018-05-17T10:14:02.069Z,14.58
2018-05-17T10:16:29.477Z,14.75
2018-05-17T10:18:57.187Z,14.95
2018-05-17T10:21:24.589Z,14.95
2018-05-17T10:23:51.975Z,14.88
2018-05-17T10:26:19.387Z,14.98
2018-05-17T10:28:46.965Z,15.44
2018-05-17T10:31:14.370Z,15.46
2018-05-17T10:33:41.763Z,15.67
2018-05-17T10:36:09.170Z,15.86
2018-05-17T10:38:37.472Z,15.90
2018-05-17T10:41:04.872Z,15.77
2018-05-17T10:43:32.278Z,15.68
2018-05-17T10:46:01.013Z,15.87
2018-05-17T10:48:28.403Z,15.96
2018-05-17T10:50:56.777Z,15.75
2018-05-17T10:53:24.176Z,16.19
2018-05-17T10:55:57.324Z,16.14
2018-05-17T10:58:24.734Z,16.36
2018-05-17T11:00:52.838Z,16.32
2018-05-17T11:03:20.239Z,16.03
2018-05-17T11:05:47.636Z,16.31
2018-05-17T11:08:15.248Z,16.54
2018-05-17T11:10:42.646Z,16.11
2018-05-17T11:13:10.052Z,15.27
2018-05-17T11:15:37.505Z,15.12
2018-05-17T11:18:06.229Z,15.17
2018-05-17T11:20:33.622Z,15.41
2018-05-17T11:23:01.045Z,15.61
2018-05-17T11:25:28.437Z,15.55
2018-05-17T11:27:55.840Z,15.77
2018-05-17T11:30:23.245Z,16.20
2018-05-17T11:32:50.648Z,16.30
2018-05-17T11:35:18.059Z,16.20
2018-05-17T11:37:45.448Z,16.03
2018-05-17T11:40:12.847Z,16.08
2018-05-17T11:42:40.309Z,15.81
2018-05-17T11:45:07.727Z,16.13
2018-05-17T11:47:35.135Z,16.34
2018-05-17T11:50:02.559Z,16.18
2018-05-17T11:52:29.920Z,15.90
2018-05-17T11:54:57.324Z,15.89
2018-05-17T11:57:24.716Z,15.89
2018-05-17T11:59:52.129Z,16.36
2018-05-17T12:02:19.583Z,16.46
2018-05-17T12:04:46.983Z,16.52
2018-05-17T12:07:14.434Z,16.70
2018-05-17T12:09:41.782Z,16.75
2018-05-17T12:12:09.555Z,16.45
2018-05-17T12:14:36.955Z,16.27
2018-05-17T12:17:04.352Z,16.35
2018-05-17T12:19:31.885Z,16.23
2018-05-17T12:21:59.779Z,16.29
2018-05-17T12:24:27.188Z,16.32
2018-05-17T12:26:54.586Z,16.42
2018-05-17T12:29:22.116Z,16.62
2018-05-17T12:31:49.532Z,16.65
2018-05-17T12:34:16.924Z,16.69
2018-05-17T12:36:44.317Z,16.52
2018-05-17T12:39:11.761Z,16.46
2018-05-17T12:41:39.148Z,16.21
2018-05-17T12:44:06.551Z,16.17
2018-05-17T12:46:34.009Z,16.64
2018-05-17T12:49:01.560Z,16.57
2018-05-17T12:51:28.956Z,16.55
2018-05-17T12:53:56.384Z,17.02
2018-05-17T12:56:23.772Z,17.18
2018-05-17T18:42:50.252Z,15.84
2018-05-17T18:45:17.647Z,15.79
2018-05-17T18:47:45.980Z,15.72
2018-05-17T18:50:13.512Z,15.69
2018-05-17T18:52:40.916Z,15.87
2018-05-17T18:55:08.320Z,15.94
2018-05-17T18:57:35.878Z,15.70
2018-05-17T19:00:03.258Z,15.64
2018-05-17T19:02:30.665Z,15.58
2018-05-17T19:04:58.054Z,15.49
2018-05-17T19:07:25.459Z,15.55
2018-05-17T19:09:52.861Z,15.27
2018-05-17T19:12:20.271Z,15.04
2018-05-17T19:14:47.691Z,14.85
2018-05-17T19:17:15.107Z,14.77
2018-05-17T19:19:42.496Z,14.77
2018-05-17T19:22:09.914Z,14.80
2018-05-17T19:24:37.392Z,14.74
2018-05-17T19:27:05.556Z,14.89
2018-05-17T19:29:32.939Z,14.99
2018-05-17T19:32:00.438Z,14.95
2018-05-17T19:34:31.796Z,15.00
2018-05-17T19:36:59.320Z,14.80
2018-05-17T19:39:27.588Z,14.62
2018-05-17T19:41:55.003Z,14.46
2018-05-17T19:44:22.413Z,14.33
2018-05-17T19:46:49.907Z,14.14
2018-05-17T19:49:17.315Z,14.08
2018-05-17T19:51:45.150Z,13.97
2018-05-17T19:54:12.604Z,13.95
2018-05-17T19:56:40.005Z,13.86
2018-05-17T19:59:07.403Z,13.74
2018-05-17T20:01:34.941Z,13.76
2018-05-17T20:04:02.394Z,13.83
2018-05-17T20:06:29.788Z,13.78
2018-05-17T20:08:57.192Z,13.70
2018-05-17T20:11:24.637Z,13.62
2018-05-17T20:13:52.004Z,13.53
2018-05-17T20:16:20.085Z,13.51
2018-05-17T20:18:47.621Z,13.29
2018-05-17T20:21:14.927Z,13.10
2018-05-17T20:23:42.333Z,13.05
2018-05-17T20:26:09.738Z,13.00
2018-05-17T20:28:37.360Z,13.02
2018-05-17T20:31:04.756Z,12.99
2018-05-17T20:33:32.152Z,12.90
2018-05-17T20:35:59.611Z,12.81
2018-05-17T20:38:27.308Z,12.83
2018-05-17T20:40:54.699Z,12.82
2018-05-17T20:43:22.084Z,12.76
2018-05-17T20:45:50.480Z,12.62
2018-05-17T20:48:17.888Z,12.58
2018-05-17T20:50:45.294Z,12.57
2018-05-17T20:53:12.680Z,12.89
2018-05-17T20:55:40.092Z,12.80
2018-05-17T20:58:07.495Z,12.71
2018-05-17T21:00:34.920Z,12.59
2018-05-17T21:03:02.846Z,12.52
2018-05-17T21:05:30.244Z,12.53
2018-05-17T21:07:57.624Z,12.51
2018-05-17T21:10:25.890Z,12.46
2018-05-17T21:12:53.350Z,12.36
2018-05-17T21:15:21.029Z,12.31
2018-05-17T21:17:48.428Z,12.22
2018-05-17T21:20:15.834Z,12.26
2018-05-17T21:22:43.228Z,12.26
2018-05-17T21:25:10.626Z,12.14
2018-05-17T21:27:38.203Z,12.03
2018-05-17T21:30:05.628Z,12.01
2018-05-17T21:32:33.011Z,12.00
2018-05-17T21:35:00.554Z,11.99
2018-05-17T21:37:27.927Z,11.94
2018-05-17T21:39:55.328Z,11.89
2018-05-17T21:42:22.717Z,11.98
2018-05-17T21:44:50.118Z,12.00
2018-05-17T21:47:17.509Z,11.97
2018-05-17T21:49:44.908Z,11.90
2018-05-17T21:52:12.314Z,11.79
2018-05-17T21:54:39.761Z,11.72
2018-05-17T21:57:07.168Z,11.63
2018-05-17T22:02:38.592Z,11.55
2018-05-17T22:05:06.864Z,11.49
2018-05-17T22:07:34.286Z,11.51
2018-05-17T22:10:01.648Z,11.47
2018-05-17T22:12:29.050Z,11.42
2018-05-17T22:14:56.445Z,11.40
2018-05-17T22:17:23.860Z,11.43
2018-05-17T22:19:51.284Z,11.39
2018-05-17T22:22:18.688Z,11.38
2018-05-17T22:24:46.093Z,11.32
2018-05-17T22:27:13.507Z,11.29
2018-05-17T22:29:40.904Z,11.25
2018-05-17T22:32:08.314Z,11.20
2018-05-17T22:34:35.787Z,11.20
2018-05-17T22:37:03.179Z,11.12
2018-05-17T22:39:30.572Z,11.20
2018-05-17T22:41:58.096Z,11.40
2018-05-17T22:44:25.504Z,11.44
2018-05-17T22:46:53.577Z,11.59
2018-05-17T22:49:21.134Z,11.66
2018-05-17T22:51:48.583Z,11.81
2018-05-17T22:54:15.908Z,11.55
2018-05-17T22:56:55.179Z,11.39
2018-05-17T22:59:22.581Z,11.23
2018-05-17T23:01:50.101Z,11.37
2018-05-17T23:04:17.540Z,11.36
2018-05-17T23:06:44.939Z,11.19
2018-05-17T23:09:12.328Z,11.32
2018-05-17T23:11:39.732Z,11.43
2018-05-17T23:14:07.136Z,11.53
2018-05-17T23:16:34.548Z,11.23
2018-05-17T23:19:02.217Z,11.18
2018-05-17T23:21:29.613Z,11.12
2018-05-17T23:23:57.007Z,11.03
2018-05-17T23:26:24.526Z,11.03
2018-05-17T23:28:51.930Z,10.86
2018-05-17T23:31:19.320Z,10.83
2018-05-17T23:33:46.736Z,10.69
2018-05-17T23:36:14.202Z,10.52
2018-05-17T23:38:41.599Z,10.41
2018-05-17T23:41:20.714Z,10.38
2018-05-17T23:43:48.102Z,10.39
2018-05-17T23:46:16.013Z,10.20
2018-05-17T23:48:43.411Z,10.17
2018-05-17T23:51:10.808Z,10.21
2018-05-17T23:53:38.217Z,10.25
2018-05-17T23:56:05.643Z,10.09
2018-05-17T23:58:33.021Z,10.09
